Time;durP1;ratioP1;P1;durP2;ratioP2;P2;SDS_P1;SDS_P2;PMS_P1;PMS_P2;Temp;Humidity;BMP_temperature;BMP_pressure;BME280_temperature;BME280_humidity;BME280_pressure;Samples;Min_cycle;Max_cycle;Signal;HPM_P1;HPM_P2
2022/04/14 00:01:41;;;;;;;14.33;9.80;;;;;;;6.19;47.40;99700.64;1713994;82;20923;-63
2022/04/14 00:04:08;;;;;;;14.87;9.28;;;;;;;6.19;47.54;99705.44;1738027;82;21574;-65
2022/04/14 00:06:35;;;;;;;14.87;10.03;;;;;;;6.19;47.67;99703.28;1716446;82;21049;-65
2022/04/14 00:09:01;;;;;;;19.02;11.00;;;;;;;6.17;47.88;99697.30;1742812;82;21361;-65
2022/04/14 00:11:29;;;;;;;16.37;10.85;;;;;;;6.16;48.04;99703.07;1689766;83;20992;-66
2022/04/14 00:13:57;;;;;;;17.20;11.10;;;;;;;6.16;48.25;99697.78;1709152;82;21045;-66
2022/04/14 00:16:24;;;;;;;19.52;12.15;;;;;;;6.15;48.45;99699.26;1725499;83;21050;-65
2022/04/14 00:18:51;;;;;;;18.60;12.37;;;;;;;6.13;48.62;99702.50;1725710;83;21599;-64
2022/04/14 00:21:19;;;;;;;19.77;12.53;;;;;;;6.11;48.83;99694.72;1726172;82;20900;-64
2022/04/14 00:23:45;;;;;;;20.17;12.93;;;;;;;6.10;49.06;99694.36;1714829;82;21006;-66
2022/04/14 00:26:12;;;;;;;20.52;13.13;;;;;;;6.09;49.22;99694.52;1731217;82;21583;-65
2022/04/14 00:28:40;;;;;;;19.42;12.60;;;;;;;6.08;49.35;99692.35;1710592;83;20916;-64
2022/04/14 00:31:08;;;;;;;18.48;12.58;;;;;;;6.10;49.42;99690.91;1744688;82;20983;-67
2022/04/14 00:33:36;;;;;;;20.40;12.13;;;;;;;6.09;49.51;99692.71;1744157;82;22264;-64
2022/04/14 00:36:05;;;;;;;20.88;12.25;;;;;;;6.10;49.53;99692.23;1693433;83;21080;-65
2022/04/14 00:38:33;;;;;;;20.57;12.82;;;;;;;6.10;49.58;99693.04;1710332;83;21521;-65
2022/04/14 00:41:00;;;;;;;15.80;12.40;;;;;;;6.09;49.56;99686.11;1710347;83;21113;-66
2022/04/14 00:43:32;;;;;;;18.98;12.40;;;;;;;6.09;49.58;99686.59;1710327;83;20892;-64
2022/04/14 00:46:00;;;;;;;18.23;12.00;;;;;;;6.07;49.61;99695.98;1716299;83;21159;-66
2022/04/14 00:48:27;;;;;;;17.00;11.90;;;;;;;6.08;49.55;99690.19;1720637;83;22042;-65
2022/04/14 00:50:55;;;;;;;16.52;12.07;;;;;;;6.09;49.58;99691.88;1720658;83;20974;-66
2022/04/14 00:53:22;;;;;;;19.50;13.05;;;;;;;6.08;49.63;99692.35;1678020;83;21082;-67
2022/04/14 00:55:51;;;;;;;18.32;12.20;;;;;;;6.08;49.74;99691.03;1677423;83;21055;-66
2022/04/14 00:58:19;;;;;;;15.68;11.35;;;;;;;6.08;49.81;99688.87;1704549;83;21049;-69
2022/04/14 01:00:45;;;;;;;16.95;11.97;;;;;;;6.08;49.79;99687.55;1716700;83;20992;-67
2022/04/14 01:03:12;;;;;;;17.48;11.48;;;;;;;6.05;49.85;99686.02;1728500;82;21476;-65
2022/04/14 01:05:42;;;;;;;16.48;11.88;;;;;;;6.04;49.89;99690.97;1699351;83;21046;-66
2022/04/14 01:08:09;;;;;;;17.17;11.28;;;;;;;6.01;49.94;99685.95;1721395;82;21677;-64
2022/04/14 01:10:36;;;;;;;17.10;11.30;;;;;;;6.02;50.03;99688.92;1726580;82;21219;-66
2022/04/14 01:13:03;;;;;;;18.55;12.18;;;;;;;6.01;50.05;99687.27;1734245;82;20974;-64
2022/04/14 01:15:29;;;;;;;18.45;12.15;;;;;;;6.02;50.03;99690.75;1718712;82;21183;-66
2022/04/14 01:17:56;;;;;;;18.85;12.00;;;;;;;6.00;50.09;99684.27;1713351;83;20990;-65
2022/04/14 01:20:23;;;;;;;26.90;13.32;;;;;;;5.99;50.26;99689.22;1681270;83;21003;-66
2022/04/14 01:23:02;;;;;;;17.30;12.23;;;;;;;6.01;50.32;99690.39;1713876;83;21454;-66
2022/04/14 01:25:26;;;;;;;18.85;12.78;;;;;;;5.99;50.43;99687.91;1706483;83;21572;-66
2022/04/14 01:27:54;;;;;;;16.55;11.33;;;;;;;6.00;50.54;99687.39;1684657;82;20975;-63
2022/04/14 01:30:21;;;;;;;20.00;12.05;;;;;;;6.03;50.61;99686.64;1691042;83;21047;-65
2022/04/14 01:32:48;;;;;;;16.30;11.55;;;;;;;6.06;50.62;99684.22;1713649;83;20860;-68
2022/04/14 01:35:16;;;;;;;17.35;11.35;;;;;;;6.08;50.58;99687.06;1713741;83;20908;-63
2022/04/14 01:37:42;;;;;;;17.07;11.33;;;;;;;6.11;50.54;99684.16;1698550;83;21536;-66
2022/04/14 01:40:12;;;;;;;15.93;11.40;;;;;;;6.13;50.46;99684.84;1712290;83;21071;-63
2022/04/14 01:42:39;;;;;;;15.72;11.18;;;;;;;6.13;50.44;99685.33;1711179;83;21587;-66
2022/04/14 01:45:10;;;;;;;19.67;11.12;;;;;;;6.14;50.48;99684.37;1714351;83;20954;-65
2022/04/14 01:47:42;;;;;;;17.12;11.20;;;;;;;6.12;50.45;99685.84;1718145;83;21283;-64
2022/04/14 01:50:12;;;;;;;19.85;11.40;;;;;;;6.09;50.45;99687.43;1710462;83;21541;-67
2022/04/14 01:52:39;;;;;;;19.52;11.30;;;;;;;6.06;50.51;99689.02;1711193;83;20954;-66
2022/04/14 01:55:07;;;;;;;14.18;10.98;;;;;;;6.04;50.55;99685.69;1716587;82;21121;-63
2022/04/14 01:57:34;;;;;;;18.37;11.08;;;;;;;6.04;50.60;99685.69;1722099;83;21505;-65
2022/04/14 02:00:05;;;;;;;15.58;10.30;;;;;;;6.05;50.61;99685.17;1721201;83;21319;-66
2022/04/14 02:02:31;;;;;;;15.48;10.53;;;;;;;6.04;50.63;99695.41;1717345;81;21005;-65
2022/04/14 02:04:58;;;;;;;15.23;10.23;;;;;;;6.04;50.54;99695.41;1720587;83;21037;-63
2022/04/14 02:07:25;;;;;;;14.45;11.15;;;;;;;6.03;50.56;99695.05;1698792;82;21007;-67
2022/04/14 02:09:52;;;;;;;14.85;10.82;;;;;;;6.02;50.50;99694.72;1688357;85;21030;-63
2022/04/14 02:12:20;;;;;;;17.05;11.10;;;;;;;6.00;50.60;99695.31;1691764;83;21024;-64
2022/04/14 02:14:46;;;;;;;13.50;10.88;;;;;;;5.96;50.80;99694.77;1751812;82;21003;-65
2022/04/14 02:17:14;;;;;;;13.28;9.90;;;;;;;5.96;50.91;99695.25;1742117;81;21015;-65
2022/04/14 02:19:42;;;;;;;16.52;10.70;;;;;;;5.96;50.89;99697.41;1726969;83;21456;-68
2022/04/14 02:22:09;;;;;;;12.88;9.43;;;;;;;6.00;50.70;99704.08;1691471;83;21112;-65
2022/04/14 02:24:38;;;;;;;11.78;9.75;;;;;;;6.02;50.55;99707.41;1728533;81;20962;-67
2022/04/14 02:27:05;;;;;;;16.80;11.25;;;;;;;6.00;50.50;99698.80;1725155;81;21584;-64
2022/04/14 02:29:33;;;;;;;14.65;10.50;;;;;;;6.00;50.47;99701.44;1731243;81;21085;-67
2022/04/14 02:32:00;;;;;;;13.32;10.05;;;;;;;6.00;50.47;99702.76;1696166;83;21583;-63
2022/04/14 02:34:28;;;;;;;17.15;10.05;;;;;;;6.02;50.43;99706.60;1719310;83;21040;-66
2022/04/14 02:36:54;;;;;;;13.38;9.55;;;;;;;6.00;50.54;99701.92;1715891;81;21179;-66
2022/04/14 02:39:21;;;;;;;14.85;10.95;;;;;;;6.03;50.49;99709.58;1713316;81;21130;-65
2022/04/14 02:41:49;;;;;;;13.10;9.63;;;;;;;6.01;50.50;99707.08;1696011;82;21039;-65
2022/04/14 02:44:18;;;;;;;14.38;10.45;;;;;;;6.02;50.55;99705.28;1737174;81;21228;-62
2022/04/14 02:46:45;;;;;;;12.50;9.80;;;;;;;6.00;50.56;99712.00;1716735;81;21093;-63
2022/04/14 02:49:12;;;;;;;17.20;11.10;;;;;;;6.00;50.53;99709.36;1728674;81;21272;-65
2022/04/14 02:51:38;;;;;;;13.93;10.08;;;;;;;6.01;50.45;99708.41;1699574;83;21046;-62
2022/04/14 02:54:04;;;;;;;15.50;9.95;;;;;;;6.01;50.47;99714.16;1744916;81;20894;-66
2022/04/14 02:56:31;;;;;;;14.15;10.93;;;;;;;6.01;50.48;99715.00;1684412;83;21007;-66
2022/04/14 02:58:58;;;;;;;13.88;10.05;;;;;;;5.99;50.54;99716.95;1697839;83;21086;-64
2022/04/14 03:01:24;;;;;;;13.68;10.58;;;;;;;5.97;50.60;99716.23;1712583;83;21261;-64
2022/04/14 03:03:52;;;;;;;12.07;10.03;;;;;;;5.97;50.60;99713.59;1707458;83;21108;-66
2022/04/14 03:06:18;;;;;;;14.23;9.63;;;;;;;5.99;50.61;99722.23;1702674;83;21573;-63
2022/04/14 03:08:46;;;;;;;13.35;10.20;;;;;;;5.97;50.61;99718.87;1691660;82;21006;-64
2022/04/14 03:11:13;;;;;;;13.65;10.00;;;;;;;5.93;50.59;99720.61;1699361;83;20997;-65
2022/04/14 03:13:42;;;;;;;11.73;9.08;;;;;;;5.96;50.63;99725.14;1698987;84;21269;-62
2022/04/14 03:16:08;;;;;;;14.13;9.00;;;;;;;5.95;50.69;99729.22;1703013;83;20998;-65
2022/04/14 03:18:36;;;;;;;15.10;9.95;;;;;;;5.97;50.64;99736.03;1706250;84;21057;-64
2022/04/14 03:21:04;;;;;;;20.05;9.53;;;;;;;5.96;50.61;99733.06;1707292;84;20991;-64
2022/04/14 03:23:32;;;;;;;17.82;8.98;;;;;;;5.94;50.69;99736.33;1706970;84;20943;-66
2022/04/14 03:25:59;;;;;;;15.80;9.73;;;;;;;5.92;50.74;99741.37;1705904;84;21269;-66
2022/04/14 03:28:25;;;;;;;12.25;9.40;;;;;;;5.86;50.80;99738.80;1704970;83;21090;-67
2022/04/14 03:30:52;;;;;;;14.58;10.25;;;;;;;5.84;50.87;99739.37;1705946;83;20998;-65
2022/04/14 03:33:19;;;;;;;14.50;8.78;;;;;;;5.78;50.95;99743.88;1705951;82;20976;-66
2022/04/14 03:35:46;;;;;;;12.28;8.93;;;;;;;5.76;51.03;99750.27;1706155;83;20999;-68
2022/04/14 03:38:12;;;;;;;11.68;9.25;;;;;;;5.72;51.08;99754.97;1695054;83;21163;-67
2022/04/14 03:40:39;;;;;;;14.68;9.43;;;;;;;5.71;51.02;99753.28;1705229;83;21058;-65
2022/04/14 03:43:05;;;;;;;10.80;8.93;;;;;;;5.70;51.03;99753.43;1701261;84;20944;-63
2022/04/14 03:45:33;;;;;;;20.30;12.50;;;;;;;5.68;51.08;99753.58;1703147;84;21473;-65
2022/04/14 03:48:00;;;;;;;17.57;11.15;;;;;;;5.63;51.22;99749.66;1706328;83;21081;-65
2022/04/14 03:50:27;;;;;;;15.45;12.05;;;;;;;5.63;51.44;99751.82;1703325;84;21241;-65
2022/04/14 03:52:54;;;;;;;29.72;21.20;;;;;;;5.63;51.61;99752.62;1702664;83;21085;-64
2022/04/14 03:55:21;;;;;;;22.98;13.98;;;;;;;5.63;51.78;99751.82;1705141;82;21011;-63
2022/04/14 03:57:47;;;;;;;23.42;15.53;;;;;;;5.65;51.89;99754.31;1705717;84;20943;-64
2022/04/14 04:00:14;;;;;;;19.55;13.90;;;;;;;5.66;51.93;99754.17;1704682;84;21149;-67
2022/04/14 04:02:41;;;;;;;16.57;12.82;;;;;;;5.66;52.01;99755.48;1705374;83;21168;-68
2022/04/14 04:05:08;;;;;;;20.23;12.98;;;;;;;5.67;52.05;99747.09;1705593;83;20944;-70
2022/04/14 04:07:35;;;;;;;18.20;12.65;;;;;;;5.69;52.07;99755.23;1702729;84;21464;-63
2022/04/14 04:10:06;;;;;;;23.07;15.72;;;;;;;5.69;52.03;99751.27;1700234;83;20959;-66
2022/04/14 04:12:32;;;;;;;20.72;13.05;;;;;;;5.72;52.00;99749.69;1705782;84;21632;-64
2022/04/14 04:15:00;;;;;;;25.10;13.83;;;;;;;5.76;52.01;99748.44;1697507;83;20988;-68
2022/04/14 04:17:27;;;;;;;21.68;14.03;;;;;;;5.84;51.92;99748.61;1697917;82;21063;-67
2022/04/14 04:19:55;;;;;;;21.62;13.70;;;;;;;5.89;51.95;99754.35;1705916;84;21501;-65
2022/04/14 04:22:22;;;;;;;24.50;15.58;;;;;;;5.95;51.92;99756.95;1704846;83;21620;-66
2022/04/14 04:24:50;;;;;;;23.00;14.33;;;;;;;6.03;51.97;99759.27;1705322;84;21019;-65
2022/04/14 04:27:17;;;;;;;20.90;14.20;;;;;;;6.09;52.03;99752.14;1706014;84;21258;-67
2022/04/14 04:29:45;;;;;;;29.07;16.25;;;;;;;6.16;51.99;99752.42;1706241;84;21042;-64
2022/04/14 04:32:11;;;;;;;25.30;14.80;;;;;;;6.23;51.92;99756.69;1702030;84;20997;-63
2022/04/14 04:34:38;;;;;;;30.72;14.35;;;;;;;6.30;51.82;99752.52;1705016;84;21095;-64
2022/04/14 04:37:05;;;;;;;21.15;14.60;;;;;;;6.37;51.73;99753.64;1705830;84;21141;-66
2022/04/14 04:39:32;;;;;;;20.45;12.65;;;;;;;6.48;51.63;99754.84;1705541;83;21272;-67
2022/04/14 04:41:59;;;;;;;22.70;12.43;;;;;;;6.57;51.52;99761.96;1708941;82;21038;-66
2022/04/14 04:44:25;;;;;;;22.52;12.13;;;;;;;6.64;51.37;99761.27;1704286;84;21018;-65
2022/04/14 04:46:52;;;;;;;32.98;14.23;;;;;;;6.73;51.30;99753.81;1705696;84;21090;-65
2022/04/14 04:49:19;;;;;;;43.87;22.00;;;;;;;6.82;51.40;99757.44;1706272;84;20988;-64
2022/04/14 04:51:45;;;;;;;26.10;16.93;;;;;;;6.93;51.45;99763.07;1706050;84;21146;-64
2022/04/14 04:54:12;;;;;;;26.15;15.15;;;;;;;7.03;51.61;99766.05;1705914;84;21013;-60
2022/04/14 04:56:38;;;;;;;31.73;14.95;;;;;;;7.14;51.70;99758.45;1706548;83;21089;-64
2022/04/14 04:59:05;;;;;;;39.15;14.45;;;;;;;7.24;51.80;99759.27;1705814;84;21199;-65
2022/04/14 05:01:31;;;;;;;35.40;14.73;;;;;;;7.35;51.74;99761.76;1701630;83;21073;-63
2022/04/14 05:03:58;;;;;;;31.55;14.10;;;;;;;7.46;51.75;99755.79;1690316;83;21283;-62
2022/04/14 05:06:26;;;;;;;38.30;14.07;;;;;;;7.58;51.67;99759.11;1706053;84;20928;-66
2022/04/14 05:08:53;;;;;;;31.55;12.45;;;;;;;7.70;51.61;99759.27;1705484;83;21042;-66
2022/04/14 05:11:21;;;;;;;29.40;13.72;;;;;;;7.84;51.63;99761.45;1702142;84;21082;-64
2022/04/14 05:13:49;;;;;;;39.33;16.23;;;;;;;8.01;51.33;99761.14;1703878;84;21030;-65
2022/04/14 05:16:15;;;;;;;31.30;13.60;;;;;;;8.22;50.88;99760.41;1699809;84;21258;-62
2022/04/14 05:18:43;;;;;;;32.67;15.15;;;;;;;8.42;50.61;99760.65;1704787;83;20975;-67
2022/04/14 05:21:10;;;;;;;24.35;13.65;;;;;;;8.61;50.35;99767.16;1679771;83;20967;-67
2022/04/14 05:23:37;;;;;;;24.55;14.23;;;;;;;8.84;50.05;99766.72;1704767;84;20985;-67
2022/04/14 05:26:06;;;;;;;23.77;14.45;;;;;;;9.05;49.70;99765.39;1696904;83;20959;-65
2022/04/14 05:28:33;;;;;;;23.38;13.58;;;;;;;9.33;49.50;99761.30;1705766;83;21164;-67
2022/04/14 05:31:01;;;;;;;35.48;14.60;;;;;;;9.63;48.70;99762.98;1705860;84;21038;-66
2022/04/14 05:33:28;;;;;;;20.95;13.62;;;;;;;9.88;48.09;99762.63;1702360;83;21580;-63
2022/04/14 05:35:55;;;;;;;20.30;13.70;;;;;;;10.10;47.82;99763.86;1702320;83;21061;-67
2022/04/14 05:38:23;;;;;;;18.73;12.68;;;;;;;10.26;47.68;99758.64;1706483;84;20947;-66
2022/04/14 05:40:50;;;;;;;20.48;13.13;;;;;;;10.42;47.58;99754.22;1706212;83;21868;-65
2022/04/14 05:43:21;;;;;;;26.15;13.10;;;;;;;10.59;47.35;99756.88;1705389;84;21425;-62
2022/04/14 05:45:49;;;;;;;27.07;13.32;;;;;;;10.73;47.11;99752.27;1700054;83;20986;-67
2022/04/14 05:48:18;;;;;;;32.30;13.45;;;;;;;10.84;46.96;99754.12;1686198;84;20908;-65
2022/04/14 05:50:46;;;;;;;33.02;14.75;;;;;;;10.95;46.89;99753.77;1713526;83;21064;-64
2022/04/14 05:53:16;;;;;;;29.02;15.50;;;;;;;11.08;46.77;99748.78;1717683;83;22397;-63
2022/04/14 05:55:42;;;;;;;24.20;15.40;;;;;;;11.18;46.68;99756.09;1678090;83;21581;-65
2022/04/14 05:58:09;;;;;;;22.65;15.48;;;;;;;11.33;46.33;99763.41;1726244;81;21594;-65
2022/04/14 06:00:36;;;;;;;35.00;16.90;;;;;;;11.43;46.23;99762.23;1726170;81;21402;-63
2022/04/14 06:03:03;;;;;;;48.52;18.15;;;;;;;11.56;46.21;99759.05;1727387;81;21041;-64
2022/04/14 06:05:30;;;;;;;31.45;18.40;;;;;;;11.73;46.18;99764.19;1727155;81;21297;-65
2022/04/14 06:07:58;;;;;;;37.90;17.98;;;;;;;11.94;45.98;99765.48;1725105;81;20970;-68
2022/04/14 06:10:26;;;;;;;33.70;18.00;;;;;;;12.21;45.72;99771.20;1725633;81;21013;-64
2022/04/14 06:12:57;;;;;;;28.25;18.85;;;;;;;12.57;45.39;99770.17;1726267;81;21323;-67
2022/04/14 06:15:26;;;;;;;24.67;17.52;;;;;;;12.99;44.99;99767.05;1727776;81;20990;-64
2022/04/14 06:17:54;;;;;;;25.60;17.87;;;;;;;13.49;44.40;99763.31;1741781;81;21231;-65
2022/04/14 06:20:21;;;;;;;24.32;16.45;;;;;;;14.13;43.54;99767.63;1727307;83;20982;-66
2022/04/14 06:22:49;;;;;;;24.90;15.35;;;;;;;14.94;42.48;99764.66;1726251;83;20855;-64
2022/04/14 06:25:22;;;;;;;27.42;15.85;;;;;;;15.80;40.97;99758.99;1719386;81;20915;-63
2022/04/14 06:27:47;;;;;;;29.30;15.45;;;;;;;16.67;39.37;99756.53;1683471;83;21086;-63
2022/04/14 06:30:15;;;;;;;21.87;13.72;;;;;;;17.62;37.53;99748.16;1719588;81;21297;-64
2022/04/14 06:32:42;;;;;;;25.55;14.38;;;;;;;18.44;35.87;99740.23;1724117;82;21045;-63
2022/04/14 06:35:15;;;;;;;25.30;14.60;;;;;;;19.25;34.24;99734.46;1724762;82;22011;-65
2022/04/14 06:37:41;;;;;;;22.87;14.98;;;;;;;19.86;32.82;99739.12;1724908;82;20963;-64
2022/04/14 06:40:10;;;;;;;22.52;14.70;;;;;;;20.23;31.91;99744.83;1712701;82;20903;-64
2022/04/14 06:42:36;;;;;;;20.50;15.90;;;;;;;20.64;31.29;99736.02;1712965;82;21786;-63
2022/04/14 06:45:06;;;;;;;22.73;14.58;;;;;;;21.05;30.47;99737.89;1724083;82;20958;-65
2022/04/14 06:47:33;;;;;;;19.32;15.10;;;;;;;21.51;29.49;99736.64;1713799;82;20911;-66
2022/04/14 06:49:59;;;;;;;23.15;17.05;;;;;;;21.99;28.75;99730.48;1708887;82;21000;-65
2022/04/14 06:52:26;;;;;;;24.10;19.98;;;;;;;22.50;28.01;99728.83;1724609;82;20934;-65
2022/04/14 06:54:53;;;;;;;21.73;16.90;;;;;;;23.13;26.96;99729.99;1711288;81;21349;-66
2022/04/14 06:57:20;;;;;;;16.57;13.00;;;;;;;23.85;25.62;99722.76;1702229;82;21069;-65
2022/04/14 06:59:48;;;;;;;12.28;9.53;;;;;;;24.44;24.12;99720.55;1656092;86;20931;-64
2022/04/14 07:02:16;;;;;;;10.05;7.83;;;;;;;24.88;23.08;99719.97;1659820;86;20927;-65
2022/04/14 07:04:42;;;;;;;8.63;7.65;;;;;;;25.31;22.20;99718.17;1667780;84;21014;-66
2022/04/14 07:07:10;;;;;;;10.95;5.70;;;;;;;25.71;21.54;99719.30;1657114;86;20998;-63
2022/04/14 07:09:38;;;;;;;8.55;4.40;;;;;;;26.72;20.73;99710.23;1667657;86;20950;-66
2022/04/14 07:12:08;;;;;;;5.15;3.65;;;;;;;26.72;20.73;99710.23;1657718;86;20884;-68
2022/04/14 07:14:36;;;;;;;6.33;3.27;;;;;;;27.24;19.61;99705.13;1655755;86;20942;-65
2022/04/14 07:17:04;;;;;;;4.83;3.62;;;;;;;27.44;19.10;99701.05;1668331;85;20966;-67
2022/04/14 07:19:31;;;;;;;7.25;3.90;;;;;;;27.72;18.82;99705.91;1667964;86;21279;-64
2022/04/14 07:21:58;;;;;;;6.50;4.72;;;;;;;28.12;18.27;99711.31;1665940;86;21009;-66
2022/04/14 07:24:24;;;;;;;5.83;3.75;;;;;;;28.50;18.05;99712.48;1666126;86;20991;-67
2022/04/14 07:26:51;;;;;;;6.97;4.30;;;;;;;28.82;17.62;99712.06;1668260;85;20988;-65
2022/04/14 07:29:17;;;;;;;6.30;3.90;;;;;;;28.94;17.32;99708.41;1668488;86;20872;-67
2022/04/14 07:31:45;;;;;;;6.45;4.17;;;;;;;28.98;16.98;99704.02;1668294;84;21140;-64
2022/04/14 07:34:14;;;;;;;7.17;4.58;;;;;;;28.90;17.02;99712.83;1668364;86;21568;-66
2022/04/14 07:36:40;;;;;;;6.55;5.83;;;;;;;28.99;17.07;99708.95;1668632;86;20998;-66
2022/04/14 07:39:09;;;;;;;6.12;5.33;;;;;;;29.00;17.00;99705.91;1668333;84;20967;-67
2022/04/14 07:41:36;;;;;;;7.55;4.40;;;;;;;28.95;16.85;99708.69;1668412;86;21473;-65
2022/04/14 07:44:04;;;;;;;5.65;4.60;;;;;;;28.81;17.03;99707.68;1668456;85;21255;-64
2022/04/14 07:46:35;;;;;;;7.62;4.12;;;;;;;29.04;16.86;99695.22;1668372;84;20910;-68
2022/04/14 07:49:01;;;;;;;7.12;3.77;;;;;;;29.43;16.77;99697.92;1618136;86;21497;-68
2022/04/14 07:51:28;;;;;;;3.95;3.55;;;;;;;29.71;16.34;99696.55;1668326;86;20958;-68
2022/04/14 07:53:55;;;;;;;4.95;3.10;;;;;;;29.85;16.03;99699.45;1668404;84;20872;-65
2022/04/14 07:56:22;;;;;;;7.78;3.17;;;;;;;29.87;15.51;99698.05;1670660;82;21264;-66
2022/04/14 07:58:50;;;;;;;4.10;3.08;;;;;;;29.79;15.54;99697.86;1723209;82;21024;-67
2022/04/14 08:01:20;;;;;;;5.55;2.80;;;;;;;29.77;15.36;99694.56;1722499;82;20872;-62
2022/04/14 08:03:48;;;;;;;2.92;2.70;;;;;;;29.69;15.37;99696.57;1722641;82;20928;-66
2022/04/14 08:06:15;;;;;;;3.87;2.30;;;;;;;29.72;15.34;99698.73;1722477;82;20903;-65
2022/04/14 08:08:42;;;;;;;2.60;2.17;;;;;;;29.80;15.16;99697.56;1722879;82;21311;-64
2022/04/14 08:11:10;;;;;;;2.62;2.35;;;;;;;29.93;14.93;99686.47;1722232;82;20982;-66
2022/04/14 08:13:38;;;;;;;2.25;1.90;;;;;;;30.09;14.51;99693.39;1722707;82;20914;-67
2022/04/14 08:16:09;;;;;;;3.72;2.62;;;;;;;30.15;14.31;99686.73;1722586;81;20986;-64
2022/04/14 08:18:40;;;;;;;8.78;2.98;;;;;;;30.26;14.23;99686.06;1722577;82;20895;-63
2022/04/14 08:21:06;;;;;;;4.42;1.92;;;;;;;30.44;14.11;99683.38;1711201;82;21974;-63
2022/04/14 08:23:38;;;;;;;5.47;2.15;;;;;;;30.74;13.61;99681.31;1722628;82;20983;-63
2022/04/14 08:26:02;;;;;;;5.53;1.80;;;;;;;30.99;13.41;99683.69;1722200;82;20954;-65
2022/04/14 08:28:29;;;;;;;6.00;1.87;;;;;;;31.15;13.02;99679.03;1722576;82;20935;-66
2022/04/14 08:30:56;;;;;;;3.90;1.75;;;;;;;31.40;12.86;99681.88;1722988;82;20963;-64
2022/04/14 08:33:24;;;;;;;3.67;2.77;;;;;;;31.67;12.37;99684.73;1722656;82;21178;-65
2022/04/14 08:35:53;;;;;;;4.67;2.35;;;;;;;31.84;12.48;99683.29;1722836;82;21556;-64
2022/04/14 08:38:21;;;;;;;3.45;2.12;;;;;;;31.95;12.23;99688.85;1722523;82;20958;-65
2022/04/14 08:40:48;;;;;;;4.72;2.00;;;;;;;32.09;12.26;99686.96;1722654;82;20963;-65
2022/04/14 08:43:35;;;;;;;5.95;1.80;;;;;;;32.34;12.04;99685.04;1722420;82;21002;-65
2022/04/14 08:50:01;;;;;;;2.47;1.90;;;;;;;32.63;11.90;99680.02;1689676;84;21595;-64
2022/04/14 08:52:27;;;;;;;3.80;2.00;;;;;;;32.81;11.77;99679.59;1689915;84;20939;-66
2022/04/14 08:54:57;;;;;;;3.58;1.82;;;;;;;32.70;11.55;99678.20;1689758;84;20979;-66
2022/04/14 08:57:25;;;;;;;5.80;2.87;;;;;;;32.29;11.53;99681.02;1685581;84;20915;-65
2022/04/14 08:59:52;;;;;;;2.70;1.75;;;;;;;32.08;11.71;99679.81;1680554;84;21262;-65
2022/04/14 09:02:21;;;;;;;4.37;2.15;;;;;;;32.05;11.68;99676.30;1679999;84;20889;-65
2022/04/14 09:04:49;;;;;;;5.65;2.27;;;;;;;31.91;11.71;99674.91;1680237;84;20944;-65
2022/04/14 09:07:16;;;;;;;6.10;2.42;;;;;;;32.04;11.69;99670.55;1680210;84;21454;-66
2022/04/14 09:09:44;;;;;;;4.22;2.55;;;;;;;32.28;11.67;99670.57;1680338;84;20987;-64
2022/04/14 09:12:13;;;;;;;4.95;2.15;;;;;;;32.44;11.36;99659.22;1680551;84;20992;-66
2022/04/14 09:14:40;;;;;;;4.90;2.15;;;;;;;32.27;11.46;99658.50;1680566;84;21387;-67
2022/04/14 09:17:09;;;;;;;4.45;2.65;;;;;;;32.15;11.64;99654.06;1670127;84;20951;-65
2022/04/14 09:19:37;;;;;;;7.17;2.30;;;;;;;32.13;11.43;99650.26;1679894;84;20984;-67
2022/04/14 09:22:12;;;;;;;3.87;1.92;;;;;;;31.88;11.52;99653.52;1669298;84;21016;-64
2022/04/14 09:24:55;;;;;;;4.97;2.20;;;;;;;31.71;11.66;99652.73;1680062;84;21246;-66
2022/04/14 09:27:31;;;;;;;2.62;2.10;;;;;;;31.85;11.66;99647.80;1672380;84;20991;-65
2022/04/14 09:30:03;;;;;;;3.50;2.00;;;;;;;32.00;11.51;99646.14;1680119;84;20967;-62
2022/04/14 09:32:43;;;;;;;4.03;2.87;;;;;;;32.05;11.63;99639.97;1680132;84;20952;-64
2022/04/14 09:35:19;;;;;;;10.13;2.85;;;;;;;32.11;11.66;99642.87;1670460;84;21053;-66
2022/04/14 09:38:02;;;;;;;5.85;2.70;;;;;;;32.24;11.57;99637.09;1680374;84;21008;-64
2022/04/14 09:40:35;;;;;;;6.78;2.67;;;;;;;32.41;11.57;99644.72;1680071;84;20912;-64
2022/04/14 09:43:01;;;;;;;7.42;2.83;;;;;;;32.65;11.47;99636.45;1680437;84;21573;-62
2022/04/14 09:45:29;;;;;;;11.60;3.15;;;;;;;32.90;11.18;99637.20;1680266;84;20904;-66
2022/04/14 09:48:09;;;;;;;6.10;2.52;;;;;;;32.99;11.09;99641.41;1680567;84;21430;-65
2022/04/14 09:50:41;;;;;;;4.20;2.80;;;;;;;32.87;11.00;99640.61;1680539;84;21724;-67
2022/04/14 09:53:12;;;;;;;3.37;2.00;;;;;;;32.63;11.04;99635.95;1669771;84;20988;-66
2022/04/14 09:55:52;;;;;;;4.20;2.72;;;;;;;32.65;10.98;99634.26;1680705;84;20984;-67
2022/04/14 09:58:24;;;;;;;3.70;1.85;;;;;;;32.69;10.75;99636.09;1682377;84;20916;-65
2022/04/14 10:00:54;;;;;;;4.53;2.25;;;;;;;32.60;10.89;99628.31;1712264;83;21052;-62
2022/04/14 10:03:29;;;;;;;7.22;2.45;;;;;;;32.59;10.92;99626.67;1712024;83;21144;-63
2022/04/14 10:06:00;;;;;;;5.30;2.40;;;;;;;32.47;11.03;99630.52;1712152;83;21462;-66
2022/04/14 10:08:29;;;;;;;5.62;2.25;;;;;;;31.97;11.11;99628.28;1711539;83;20955;-67
2022/04/14 10:11:06;;;;;;;4.35;2.02;;;;;;;30.83;11.72;99625.96;1711880;83;20984;-67
2022/04/14 10:13:38;;;;;;;3.58;2.00;;;;;;;30.03;12.19;99625.19;1712360;83;21052;-67
2022/04/14 10:16:07;;;;;;;4.62;1.90;;;;;;;29.51;12.46;99623.30;1712074;83;22035;-64
2022/04/14 10:18:34;;;;;;;4.08;1.98;;;;;;;29.14;12.85;99622.55;1711923;83;21580;-68
2022/04/14 10:21:00;;;;;;;3.47;2.22;;;;;;;28.52;13.15;99624.09;1711896;83;21005;-64
2022/04/14 10:23:27;;;;;;;4.70;2.17;;;;;;;27.87;13.71;99622.49;1712005;83;20936;-66
2022/04/14 10:25:54;;;;;;;3.00;1.87;;;;;;;27.28;14.03;99620.17;1711880;83;21011;-63
2022/04/14 10:28:21;;;;;;;4.10;2.42;;;;;;;26.82;14.47;99618.86;1712173;83;21355;-66
2022/04/14 10:30:52;;;;;;;4.42;1.98;;;;;;;26.47;14.88;99617.95;1711604;83;21021;-67
2022/04/14 10:33:17;;;;;;;4.00;2.35;;;;;;;26.18;14.98;99612.16;1711740;82;21423;-67
2022/04/14 10:35:44;;;;;;;4.12;1.98;;;;;;;25.84;15.17;99616.39;1694856;84;20990;-64
2022/04/14 10:38:30;;;;;;;2.95;1.80;;;;;;;25.59;15.38;99609.73;1694765;84;21344;-65
2022/04/14 10:41:17;;;;;;;1.98;1.57;;;;;;;25.43;15.50;99617.50;1694780;84;21135;-65
2022/04/14 10:43:47;;;;;;;2.42;1.65;;;;;;;25.22;15.60;99606.20;1694778;84;21438;-69
2022/04/14 10:46:17;;;;;;;2.85;1.75;;;;;;;25.06;15.71;99601.73;1694763;84;21576;-67
2022/04/14 10:48:45;;;;;;;2.98;2.05;;;;;;;24.97;15.79;99600.59;1694223;84;21489;-64
2022/04/14 10:51:29;;;;;;;6.70;1.87;;;;;;;24.82;16.00;99596.40;1694339;84;21089;-65
2022/04/14 10:54:06;;;;;;;2.17;1.60;;;;;;;24.65;15.99;99598.38;1694997;84;21865;-67
2022/04/14 10:56:43;;;;;;;3.70;1.87;;;;;;;24.46;16.05;99609.63;1694916;84;20954;-67
2022/04/14 10:59:38;;;;;;;2.65;2.00;;;;;;;24.22;16.39;99604.20;1679894;84;21003;-66
2022/04/14 11:02:05;;;;;;;2.85;1.72;;;;;;;24.12;16.24;99606.00;1631501;86;21034;-63
2022/04/14 11:04:49;;;;;;;3.20;1.72;;;;;;;23.95;16.16;99606.06;1694152;83;21003;-68
2022/04/14 11:07:23;;;;;;;3.12;1.85;;;;;;;23.80;16.29;99603.17;1713164;83;22285;-63
2022/04/14 11:09:57;;;;;;;3.05;1.87;;;;;;;23.75;16.26;99599.03;1713956;83;20895;-67
2022/04/14 11:12:56;;;;;;;4.58;1.65;;;;;;;23.77;16.26;99595.52;1713011;83;21507;-64
2022/04/14 11:15:31;;;;;;;4.28;1.92;;;;;;;23.80;16.26;99590.95;1714102;82;20983;-64
2022/04/14 11:18:05;;;;;;;4.10;1.60;;;;;;;23.82;16.19;99590.98;1714288;83;21480;-62
2022/04/14 11:20:38;;;;;;;3.25;1.82;;;;;;;23.81;16.10;99591.21;1713243;83;21333;-63
2022/04/14 11:23:28;;;;;;;5.47;2.30;;;;;;;23.74;15.98;99590.06;1714099;83;20951;-67
2022/04/14 11:26:10;;;;;;;2.58;1.70;;;;;;;23.65;16.27;99590.73;1713996;82;21541;-65
2022/04/14 11:28:43;;;;;;;4.28;2.02;;;;;;;23.54;16.35;99588.98;1712989;83;20952;-65
2022/04/14 11:31:23;;;;;;;2.92;2.00;;;;;;;23.40;16.44;99591.77;1703666;83;20967;-66
2022/04/14 11:33:55;;;;;;;11.50;2.17;;;;;;;23.30;16.57;99594.61;1714066;83;21148;-65
2022/04/14 11:36:27;;;;;;;3.52;1.90;;;;;;;23.26;16.73;99592.62;1713146;82;21029;-65
2022/04/14 11:39:06;;;;;;;5.03;1.82;;;;;;;23.24;16.66;99592.88;1714297;83;20984;-70